Wilmington, North Carolina
Current Conditions -  °F | °C
As of 10:53 PM on Sunday 21 Dec 2014 (Local Time) from KILM Reporting Station
Overcast Overcast  
Wind Chill: 40°   Ceiling: 600
Heat Index: 44°   Visibility: 7mi
Dew Point: 42°   Wind: 8mph
Humidity: 93%   Direction: 20°NNE
Pressure: 30.17"   Gusts: NA
Location:  34.24°N, 77.94°W
Report Text: KILM 220353Z 02007KT 7SM BKN006 OVC016 07/06 A3017 RMK AO2 RAB0259E50 SLP216 P0002 T00670056
Loading
Personal Weather Stations






























Interactive Weather Map New forecast layout! Learn more

10-Day Weather Forecast

Advertisements
Track Severe Weather on mobile